sensor_id;sensor_type;location;lat;lon;timestamp;P1;durP1;ratioP1;P2;durP2;ratioP2
23252;SDS011;11795;47.054;15.408;2023-08-06T00:00:00;0.4;;;0.3;;
23252;SDS011;11795;47.054;15.408;2023-08-06T00:02:00;0.6;;;0.3;;
23252;SDS011;11795;47.054;15.408;2023-08-06T00:04:01;0.6;;;0.3;;
23252;SDS011;11795;47.054;15.408;2023-08-06T00:06:00;0.4;;;0.3;;
23252;SDS011;11795;47.054;15.408;2023-08-06T00:08:00;0.4;;;0.3;;
23252;SDS011;11795;47.054;15.408;2023-08-06T00:10:00;0.4;;;0.3;;
23252;SDS011;11795;47.054;15.408;2023-08-06T00:12:00;0.6;;;0.2;;
23252;SDS011;11795;47.054;15.408;2023-08-06T00:14:00;0.6;;;0.2;;
23252;SDS011;11795;47.054;15.408;2023-08-06T00:16:08;0.5;;;0.2;;
23252;SDS011;11795;47.054;15.408;2023-08-06T00:18:00;0.5;;;0.2;;
23252;SDS011;11795;47.054;15.408;2023-08-06T00:20:05;0.5;;;0.2;;
23252;SDS011;11795;47.054;15.408;2023-08-06T00:22:02;1.3;;;0.2;;
23252;SDS011;11795;47.054;15.408;2023-08-06T00:24:00;1.3;;;0.2;;
23252;SDS011;11795;47.054;15.408;2023-08-06T00:26:00;0.3;;;0.1;;
23252;SDS011;11795;47.054;15.408;2023-08-06T00:28:00;0.3;;;0.1;;
23252;SDS011;11795;47.054;15.408;2023-08-06T00:30:00;0.3;;;0.1;;
23252;SDS011;11795;47.054;15.408;2023-08-06T00:32:00;0.2;;;0.2;;
23252;SDS011;11795;47.054;15.408;2023-08-06T00:34:00;0.2;;;0.2;;
23252;SDS011;11795;47.054;15.408;2023-08-06T00:36:00;0.8;;;0.3;;
23252;SDS011;11795;47.054;15.408;2023-08-06T00:38:00;0.8;;;0.3;;
23252;SDS011;11795;47.054;15.408;2023-08-06T00:40:00;0.8;;;0.3;;
23252;SDS011;11795;47.054;15.408;2023-08-06T00:42:00;0.3;;;0.2;;
23252;SDS011;11795;47.054;15.408;2023-08-06T00:44:00;0.3;;;0.2;;
23252;SDS011;11795;47.054;15.408;2023-08-06T00:46:00;0.3;;;0.3;;
23252;SDS011;11795;47.054;15.408;2023-08-06T00:48:00;0.3;;;0.3;;
23252;SDS011;11795;47.054;15.408;2023-08-06T00:50:00;0.3;;;0.3;;
23252;SDS011;11795;47.054;15.408;2023-08-06T00:52:00;0.8;;;0.3;;
23252;SDS011;11795;47.054;15.408;2023-08-06T00:54:00;0.8;;;0.3;;
23252;SDS011;11795;47.054;15.408;2023-08-06T00:56:00;0.5;;;0.4;;
23252;SDS011;11795;47.054;15.408;2023-08-06T00:58:00;0.5;;;0.4;;
23252;SDS011;11795;47.054;15.408;2023-08-06T01:00:00;0.5;;;0.4;;
23252;SDS011;11795;47.054;15.408;2023-08-06T01:02:00;0.3;;;0.3;;
23252;SDS011;11795;47.054;15.408;2023-08-06T01:04:00;0.3;;;0.3;;
23252;SDS011;11795;47.054;15.408;2023-08-06T01:06:00;0.5;;;0.2;;
23252;SDS011;11795;47.054;15.408;2023-08-06T01:08:05;0.5;;;0.2;;
23252;SDS011;11795;47.054;15.408;2023-08-06T01:10:07;0.5;;;0.2;;
23252;SDS011;11795;47.054;15.408;2023-08-06T01:12:04;1.0;;;0.3;;
23252;SDS011;11795;47.054;15.408;2023-08-06T01:14:02;1.0;;;0.3;;
23252;SDS011;11795;47.054;15.408;2023-08-06T01:16:00;1.3;;;0.5;;
23252;SDS011;11795;47.054;15.408;2023-08-06T01:18:00;1.3;;;0.5;;
23252;SDS011;11795;47.054;15.408;2023-08-06T01:20:00;1.3;;;0.5;;
23252;SDS011;11795;47.054;15.408;2023-08-06T01:22:00;0.5;;;0.5;;
23252;SDS011;11795;47.054;15.408;2023-08-06T01:24:00;0.5;;;0.5;;
23252;SDS011;11795;47.054;15.408;2023-08-06T01:26:02;0.6;;;0.3;;
23252;SDS011;11795;47.054;15.408;2023-08-06T01:28:01;0.6;;;0.3;;
23252;SDS011;11795;47.054;15.408;2023-08-06T01:30:02;0.6;;;0.3;;
23252;SDS011;11795;47.054;15.408;2023-08-06T01:32:00;0.5;;;0.4;;
23252;SDS011;11795;47.054;15.408;2023-08-06T01:34:00;0.5;;;0.4;;
23252;SDS011;11795;47.054;15.408;2023-08-06T01:36:01;0.5;;;0.4;;
23252;SDS011;11795;47.054;15.408;2023-08-06T01:38:00;0.3;;;0.2;;
23252;SDS011;11795;47.054;15.408;2023-08-06T01:40:00;0.3;;;0.2;;
23252;SDS011;11795;47.054;15.408;2023-08-06T01:42:00;0.6;;;0.3;;
23252;SDS011;11795;47.054;15.408;2023-08-06T01:44:00;0.6;;;0.3;;
23252;SDS011;11795;47.054;15.408;2023-08-06T01:46:00;0.6;;;0.3;;
23252;SDS011;11795;47.054;15.408;2023-08-06T01:48:00;0.8;;;0.3;;
23252;SDS011;11795;47.054;15.408;2023-08-06T01:50:00;0.8;;;0.3;;
23252;SDS011;11795;47.054;15.408;2023-08-06T01:52:01;1.1;;;0.3;;
23252;SDS011;11795;47.054;15.408;2023-08-06T01:54:00;1.1;;;0.3;;
23252;SDS011;11795;47.054;15.408;2023-08-06T01:56:00;1.1;;;0.3;;
23252;SDS011;11795;47.054;15.408;2023-08-06T01:58:00;0.6;;;0.4;;
23252;SDS011;11795;47.054;15.408;2023-08-06T02:00:00;0.6;;;0.4;;
23252;SDS011;11795;47.054;15.408;2023-08-06T02:02:00;0.2;;;0.2;;
23252;SDS011;11795;47.054;15.408;2023-08-06T02:04:00;0.2;;;0.2;;
23252;SDS011;11795;47.054;15.408;2023-08-06T02:06:00;0.2;;;0.2;;
23252;SDS011;11795;47.054;15.408;2023-08-06T02:08:00;1.4;;;0.5;;
23252;SDS011;11795;47.054;15.408;2023-08-06T02:10:00;1.4;;;0.5;;
23252;SDS011;11795;47.054;15.408;2023-08-06T02:12:00;1.0;;;0.5;;
23252;SDS011;11795;47.054;15.408;2023-08-06T02:14:00;1.0;;;0.5;;
23252;SDS011;11795;47.054;15.408;2023-08-06T02:16:00;1.0;;;0.5;;
23252;SDS011;11795;47.054;15.408;2023-08-06T02:18:00;0.6;;;0.5;;
23252;SDS011;11795;47.054;15.408;2023-08-06T02:20:01;0.6;;;0.5;;
23252;SDS011;11795;47.054;15.408;2023-08-06T02:22:02;1.0;;;0.4;;
23252;SDS011;11795;47.054;15.408;2023-08-06T02:24:01;1.0;;;0.4;;
23252;SDS011;11795;47.054;15.408;2023-08-06T02:26:01;1.0;;;0.4;;
23252;SDS011;11795;47.054;15.408;2023-08-06T02:28:00;0.8;;;0.5;;
23252;SDS011;11795;47.054;15.408;2023-08-06T02:30:00;0.8;;;0.5;;
23252;SDS011;11795;47.054;15.408;2023-08-06T02:32:02;0.7;;;0.5;;
23252;SDS011;11795;47.054;15.408;2023-08-06T02:34:00;0.7;;;0.5;;
23252;SDS011;11795;47.054;15.408;2023-08-06T02:36:01;0.7;;;0.5;;
23252;SDS011;11795;47.054;15.408;2023-08-06T02:38:00;1.0;;;0.4;;
23252;SDS011;11795;47.054;15.408;2023-08-06T02:40:00;1.0;;;0.4;;
23252;SDS011;11795;47.054;15.408;2023-08-06T02:42:00;1.9;;;0.6;;
23252;SDS011;11795;47.054;15.408;2023-08-06T02:44:00;1.9;;;0.6;;
23252;SDS011;11795;47.054;15.408;2023-08-06T02:46:00;1.9;;;0.6;;
23252;SDS011;11795;47.054;15.408;2023-08-06T02:48:02;2.1;;;0.6;;
23252;SDS011;11795;47.054;15.408;2023-08-06T02:50:00;2.1;;;0.6;;
23252;SDS011;11795;47.054;15.408;2023-08-06T02:52:00;0.9;;;0.5;;
23252;SDS011;11795;47.054;15.408;2023-08-06T02:54:00;0.9;;;0.5;;
23252;SDS011;11795;47.054;15.408;2023-08-06T02:56:00;0.9;;;0.5;;
23252;SDS011;11795;47.054;15.408;2023-08-06T02:58:00;0.9;;;0.4;;
23252;SDS011;11795;47.054;15.408;2023-08-06T03:00:00;0.9;;;0.4;;
23252;SDS011;11795;47.054;15.408;2023-08-06T03:02:00;0.9;;;0.5;;
23252;SDS011;11795;47.054;15.408;2023-08-06T03:04:00;0.9;;;0.5;;
23252;SDS011;11795;47.054;15.408;2023-08-06T03:06:00;0.9;;;0.5;;
23252;SDS011;11795;47.054;15.408;2023-08-06T03:08:00;0.9;;;0.4;;
23252;SDS011;11795;47.054;15.408;2023-08-06T03:10:01;0.9;;;0.4;;
23252;SDS011;11795;47.054;15.408;2023-08-06T03:12:00;0.6;;;0.4;;
23252;SDS011;11795;47.054;15.408;2023-08-06T03:14:00;0.6;;;0.4;;
23252;SDS011;11795;47.054;15.408;2023-08-06T03:16:01;0.6;;;0.4;;
23252;SDS011;11795;47.054;15.408;2023-08-06T03:18:00;0.6;;;0.5;;
23252;SDS011;11795;47.054;15.408;2023-08-06T03:20:00;0.6;;;0.5;;
23252;SDS011;11795;47.054;15.408;2023-08-06T03:22:00;1.4;;;0.6;;
23252;SDS011;11795;47.054;15.408;2023-08-06T03:24:00;1.4;;;0.6;;
23252;SDS011;11795;47.054;15.408;2023-08-06T03:26:01;1.4;;;0.6;;
23252;SDS011;11795;47.054;15.408;2023-08-06T03:28:00;1.0;;;0.5;;
23252;SDS011;11795;47.054;15.408;2023-08-06T03:30:01;1.0;;;0.5;;
23252;SDS011;11795;47.054;15.408;2023-08-06T03:32:00;0.4;;;0.4;;
23252;SDS011;11795;47.054;15.408;2023-08-06T03:34:00;0.4;;;0.4;;
23252;SDS011;11795;47.054;15.408;2023-08-06T03:36:00;0.4;;;0.4;;
23252;SDS011;11795;47.054;15.408;2023-08-06T03:38:00;0.7;;;0.4;;
23252;SDS011;11795;47.054;15.408;2023-08-06T03:40:00;0.7;;;0.4;;
23252;SDS011;11795;47.054;15.408;2023-08-06T03:42:00;0.4;;;0.4;;
23252;SDS011;11795;47.054;15.408;2023-08-06T03:44:02;0.4;;;0.4;;
23252;SDS011;11795;47.054;15.408;2023-08-06T03:46:00;0.4;;;0.4;;
23252;SDS011;11795;47.054;15.408;2023-08-06T03:48:00;0.9;;;0.5;;
23252;SDS011;11795;47.054;15.408;2023-08-06T03:50:00;0.9;;;0.5;;
23252;SDS011;11795;47.054;15.408;2023-08-06T03:52:00;0.5;;;0.4;;
23252;SDS011;11795;47.054;15.408;2023-08-06T03:54:00;0.5;;;0.4;;
23252;SDS011;11795;47.054;15.408;2023-08-06T03:56:01;0.5;;;0.4;;
23252;SDS011;11795;47.054;15.408;2023-08-06T03:58:00;1.1;;;0.5;;
23252;SDS011;11795;47.054;15.408;2023-08-06T04:00:00;1.1;;;0.5;;
23252;SDS011;11795;47.054;15.408;2023-08-06T04:02:00;0.9;;;0.5;;
23252;SDS011;11795;47.054;15.408;2023-08-06T04:04:00;0.9;;;0.5;;
23252;SDS011;11795;47.054;15.408;2023-08-06T04:06:02;0.9;;;0.5;;
23252;SDS011;11795;47.054;15.408;2023-08-06T04:08:00;1.7;;;0.5;;
23252;SDS011;11795;47.054;15.408;2023-08-06T04:10:01;1.7;;;0.5;;
23252;SDS011;11795;47.054;15.408;2023-08-06T04:12:01;0.6;;;0.5;;
23252;SDS011;11795;47.054;15.408;2023-08-06T04:14:00;0.6;;;0.5;;
23252;SDS011;11795;47.054;15.408;2023-08-06T04:16:01;0.6;;;0.5;;
23252;SDS011;11795;47.054;15.408;2023-08-06T04:18:00;0.6;;;0.4;;
23252;SDS011;11795;47.054;15.408;2023-08-06T04:20:00;0.6;;;0.4;;
23252;SDS011;11795;47.054;15.408;2023-08-06T04:22:00;0.5;;;0.4;;
23252;SDS011;11795;47.054;15.408;2023-08-06T04:24:00;0.5;;;0.4;;
23252;SDS011;11795;47.054;15.408;2023-08-06T04:26:00;0.5;;;0.4;;
23252;SDS011;11795;47.054;15.408;2023-08-06T04:28:00;1.3;;;0.7;;
23252;SDS011;11795;47.054;15.408;2023-08-06T04:30:00;1.3;;;0.7;;
23252;SDS011;11795;47.054;15.408;2023-08-06T04:32:00;1.1;;;0.4;;
23252;SDS011;11795;47.054;15.408;2023-08-06T04:34:01;1.1;;;0.4;;
23252;SDS011;11795;47.054;15.408;2023-08-06T04:36:00;1.1;;;0.4;;
23252;SDS011;11795;47.054;15.408;2023-08-06T04:38:00;0.7;;;0.4;;
23252;SDS011;11795;47.054;15.408;2023-08-06T04:40:00;0.7;;;0.4;;
23252;SDS011;11795;47.054;15.408;2023-08-06T04:42:00;0.6;;;0.6;;
23252;SDS011;11795;47.054;15.408;2023-08-06T04:44:00;0.6;;;0.6;;
23252;SDS011;11795;47.054;15.408;2023-08-06T04:46:00;0.6;;;0.6;;
23252;SDS011;11795;47.054;15.408;2023-08-06T04:48:00;0.7;;;0.6;;
23252;SDS011;11795;47.054;15.408;2023-08-06T04:50:01;0.7;;;0.6;;
23252;SDS011;11795;47.054;15.408;2023-08-06T04:52:00;0.8;;;0.5;;
23252;SDS011;11795;47.054;15.408;2023-08-06T04:54:00;0.8;;;0.5;;
23252;SDS011;11795;47.054;15.408;2023-08-06T04:56:00;0.8;;;0.5;;
23252;SDS011;11795;47.054;15.408;2023-08-06T04:58:00;0.9;;;0.8;;
23252;SDS011;11795;47.054;15.408;2023-08-06T05:00:00;0.9;;;0.8;;
23252;SDS011;11795;47.054;15.408;2023-08-06T05:02:00;2.1;;;0.8;;
23252;SDS011;11795;47.054;15.408;2023-08-06T05:04:00;2.1;;;0.8;;
23252;SDS011;11795;47.054;15.408;2023-08-06T05:06:00;2.1;;;0.8;;
23252;SDS011;11795;47.054;15.408;2023-08-06T05:08:00;1.0;;;0.8;;
23252;SDS011;11795;47.054;15.408;2023-08-06T05:10:00;1.0;;;0.8;;
23252;SDS011;11795;47.054;15.408;2023-08-06T05:12:00;0.6;;;0.5;;
23252;SDS011;11795;47.054;15.408;2023-08-06T05:14:00;0.6;;;0.5;;
23252;SDS011;11795;47.054;15.408;2023-08-06T05:16:00;0.6;;;0.5;;
23252;SDS011;11795;47.054;15.408;2023-08-06T05:18:00;1.5;;;0.7;;
23252;SDS011;11795;47.054;15.408;2023-08-06T05:20:00;1.5;;;0.7;;
23252;SDS011;11795;47.054;15.408;2023-08-06T05:22:01;0.6;;;0.6;;
23252;SDS011;11795;47.054;15.408;2023-08-06T05:24:00;0.6;;;0.6;;
23252;SDS011;11795;47.054;15.408;2023-08-06T05:26:00;0.6;;;0.6;;
23252;SDS011;11795;47.054;15.408;2023-08-06T05:28:01;1.7;;;0.6;;
23252;SDS011;11795;47.054;15.408;2023-08-06T05:30:00;1.7;;;0.6;;
23252;SDS011;11795;47.054;15.408;2023-08-06T05:32:00;1.0;;;0.9;;
23252;SDS011;11795;47.054;15.408;2023-08-06T05:34:01;1.0;;;0.9;;
23252;SDS011;11795;47.054;15.408;2023-08-06T05:36:00;1.0;;;0.9;;
23252;SDS011;11795;47.054;15.408;2023-08-06T05:38:00;1.6;;;0.7;;
23252;SDS011;11795;47.054;15.408;2023-08-06T05:40:01;1.6;;;0.7;;
23252;SDS011;11795;47.054;15.408;2023-08-06T05:42:00;1.2;;;0.7;;
23252;SDS011;11795;47.054;15.408;2023-08-06T05:44:00;1.2;;;0.7;;
23252;SDS011;11795;47.054;15.408;2023-08-06T05:46:00;1.2;;;0.7;;
23252;SDS011;11795;47.054;15.408;2023-08-06T05:48:00;0.8;;;0.7;;
23252;SDS011;11795;47.054;15.408;2023-08-06T05:50:00;0.8;;;0.7;;
23252;SDS011;11795;47.054;15.408;2023-08-06T05:52:00;1.0;;;0.8;;
23252;SDS011;11795;47.054;15.408;2023-08-06T05:54:00;1.0;;;0.8;;
23252;SDS011;11795;47.054;15.408;2023-08-06T05:56:00;1.0;;;0.8;;
23252;SDS011;11795;47.054;15.408;2023-08-06T05:58:00;0.7;;;0.7;;
23252;SDS011;11795;47.054;15.408;2023-08-06T06:00:01;0.7;;;0.7;;
23252;SDS011;11795;47.054;15.408;2023-08-06T06:02:00;1.8;;;0.8;;
23252;SDS011;11795;47.054;15.408;2023-08-06T06:04:00;1.8;;;0.8;;
23252;SDS011;11795;47.054;15.408;2023-08-06T06:06:00;1.8;;;0.8;;
23252;SDS011;11795;47.054;15.408;2023-08-06T06:08:00;0.5;;;0.5;;
23252;SDS011;11795;47.054;15.408;2023-08-06T06:10:00;0.5;;;0.5;;
23252;SDS011;11795;47.054;15.408;2023-08-06T06:12:00;2.1;;;0.7;;
23252;SDS011;11795;47.054;15.408;2023-08-06T06:14:00;2.1;;;0.7;;
23252;SDS011;11795;47.054;15.408;2023-08-06T06:16:00;2.1;;;0.7;;
23252;SDS011;11795;47.054;15.408;2023-08-06T06:18:00;0.8;;;0.6;;
23252;SDS011;11795;47.054;15.408;2023-08-06T06:20:00;0.8;;;0.6;;
23252;SDS011;11795;47.054;15.408;2023-08-06T06:22:00;0.6;;;0.5;;
23252;SDS011;11795;47.054;15.408;2023-08-06T06:24:00;0.6;;;0.5;;
23252;SDS011;11795;47.054;15.408;2023-08-06T06:26:00;0.6;;;0.5;;
23252;SDS011;11795;47.054;15.408;2023-08-06T06:28:00;0.8;;;0.7;;
23252;SDS011;11795;47.054;15.408;2023-08-06T06:30:00;0.8;;;0.7;;
23252;SDS011;11795;47.054;15.408;2023-08-06T06:32:00;1.0;;;0.7;;
23252;SDS011;11795;47.054;15.408;2023-08-06T06:34:00;1.0;;;0.7;;
23252;SDS011;11795;47.054;15.408;2023-08-06T06:36:00;1.0;;;0.7;;
23252;SDS011;11795;47.054;15.408;2023-08-06T06:38:00;1.1;;;0.8;;
23252;SDS011;11795;47.054;15.408;2023-08-06T06:40:00;1.1;;;0.8;;
23252;SDS011;11795;47.054;15.408;2023-08-06T06:42:00;0.7;;;0.7;;
23252;SDS011;11795;47.054;15.408;2023-08-06T06:44:00;0.7;;;0.7;;
23252;SDS011;11795;47.054;15.408;2023-08-06T06:46:00;0.7;;;0.7;;
23252;SDS011;11795;47.054;15.408;2023-08-06T06:48:00;0.6;;;0.6;;
23252;SDS011;11795;47.054;15.408;2023-08-06T06:50:00;0.6;;;0.6;;
23252;SDS011;11795;47.054;15.408;2023-08-06T06:52:00;0.6;;;0.6;;
23252;SDS011;11795;47.054;15.408;2023-08-06T06:54:00;0.8;;;0.6;;
23252;SDS011;11795;47.054;15.408;2023-08-06T06:56:02;0.8;;;0.6;;
23252;SDS011;11795;47.054;15.408;2023-08-06T06:58:00;0.7;;;0.7;;
23252;SDS011;11795;47.054;15.408;2023-08-06T07:00:00;0.7;;;0.7;;
23252;SDS011;11795;47.054;15.408;2023-08-06T07:02:00;0.7;;;0.7;;
23252;SDS011;11795;47.054;15.408;2023-08-06T07:04:04;0.8;;;0.7;;
23252;SDS011;11795;47.054;15.408;2023-08-06T07:06:00;0.8;;;0.7;;
23252;SDS011;11795;47.054;15.408;2023-08-06T07:08:00;0.9;;;0.5;;
23252;SDS011;11795;47.054;15.408;2023-08-06T07:10:01;0.9;;;0.5;;
23252;SDS011;11795;47.054;15.408;2023-08-06T07:12:01;0.9;;;0.5;;
23252;SDS011;11795;47.054;15.408;2023-08-06T07:14:00;0.5;;;0.5;;
23252;SDS011;11795;47.054;15.408;2023-08-06T07:16:00;0.5;;;0.5;;
23252;SDS011;11795;47.054;15.408;2023-08-06T07:18:00;0.5;;;0.5;;
23252;SDS011;11795;47.054;15.408;2023-08-06T07:20:00;0.5;;;0.5;;
23252;SDS011;11795;47.054;15.408;2023-08-06T07:22:00;0.5;;;0.5;;
23252;SDS011;11795;47.054;15.408;2023-08-06T07:24:00;0.5;;;0.5;;
23252;SDS011;11795;47.054;15.408;2023-08-06T07:26:00;0.5;;;0.5;;
23252;SDS011;11795;47.054;15.408;2023-08-06T07:28:02;1.2;;;0.6;;
23252;SDS011;11795;47.054;15.408;2023-08-06T07:30:00;1.2;;;0.6;;
23252;SDS011;11795;47.054;15.408;2023-08-06T07:32:00;1.2;;;0.6;;
23252;SDS011;11795;47.054;15.408;2023-08-06T07:34:00;0.7;;;0.6;;
23252;SDS011;11795;47.054;15.408;2023-08-06T07:36:07;0.7;;;0.6;;
23252;SDS011;11795;47.054;15.408;2023-08-06T07:38:00;0.6;;;0.5;;
23252;SDS011;11795;47.054;15.408;2023-08-06T07:40:00;0.6;;;0.5;;
23252;SDS011;11795;47.054;15.408;2023-08-06T07:42:02;0.6;;;0.5;;
23252;SDS011;11795;47.054;15.408;2023-08-06T07:44:00;0.6;;;0.5;;
23252;SDS011;11795;47.054;15.408;2023-08-06T07:46:00;0.6;;;0.5;;
23252;SDS011;11795;47.054;15.408;2023-08-06T07:48:00;9.2;;;7.6;;
23252;SDS011;11795;47.054;15.408;2023-08-06T07:50:00;9.2;;;7.6;;
23252;SDS011;11795;47.054;15.408;2023-08-06T07:52:00;9.2;;;7.6;;
23252;SDS011;11795;47.054;15.408;2023-08-06T07:54:00;16.2;;;9.3;;
23252;SDS011;11795;47.054;15.408;2023-08-06T07:56:02;16.2;;;9.3;;
23252;SDS011;11795;47.054;15.408;2023-08-06T07:58:01;7.9;;;5.4;;
23252;SDS011;11795;47.054;15.408;2023-08-06T08:00:00;7.9;;;5.4;;
23252;SDS011;11795;47.054;15.408;2023-08-06T08:02:00;7.9;;;5.4;;
23252;SDS011;11795;47.054;15.408;2023-08-06T08:04:00;2.4;;;1.5;;
23252;SDS011;11795;47.054;15.408;2023-08-06T08:06:00;2.4;;;1.5;;
23252;SDS011;11795;47.054;15.408;2023-08-06T08:08:00;1.8;;;0.6;;
23252;SDS011;11795;47.054;15.408;2023-08-06T08:10:00;1.8;;;0.6;;
23252;SDS011;11795;47.054;15.408;2023-08-06T08:12:03;1.8;;;0.6;;
23252;SDS011;11795;47.054;15.408;2023-08-06T08:14:00;2.5;;;0.8;;
23252;SDS011;11795;47.054;15.408;2023-08-06T08:16:00;2.5;;;0.8;;
23252;SDS011;11795;47.054;15.408;2023-08-06T08:18:00;3.8;;;3.5;;
23252;SDS011;11795;47.054;15.408;2023-08-06T08:20:00;3.8;;;3.5;;
23252;SDS011;11795;47.054;15.408;2023-08-06T08:22:00;3.8;;;3.5;;
23252;SDS011;11795;47.054;15.408;2023-08-06T08:24:00;4.2;;;3.8;;
23252;SDS011;11795;47.054;15.408;2023-08-06T08:26:02;4.2;;;3.8;;
23252;SDS011;11795;47.054;15.408;2023-08-06T08:28:00;0.8;;;0.8;;
23252;SDS011;11795;47.054;15.408;2023-08-06T08:30:00;0.8;;;0.8;;
23252;SDS011;11795;47.054;15.408;2023-08-06T08:32:00;0.8;;;0.8;;
23252;SDS011;11795;47.054;15.408;2023-08-06T08:34:01;0.8;;;0.7;;
23252;SDS011;11795;47.054;15.408;2023-08-06T08:36:00;0.8;;;0.7;;
23252;SDS011;11795;47.054;15.408;2023-08-06T08:38:00;1.6;;;1.0;;
23252;SDS011;11795;47.054;15.408;2023-08-06T08:40:00;1.6;;;1.0;;
23252;SDS011;11795;47.054;15.408;2023-08-06T08:42:02;1.6;;;1.0;;
23252;SDS011;11795;47.054;15.408;2023-08-06T08:44:00;2.3;;;1.3;;
23252;SDS011;11795;47.054;15.408;2023-08-06T08:46:00;2.3;;;1.3;;
23252;SDS011;11795;47.054;15.408;2023-08-06T08:48:00;1.1;;;0.9;;
23252;SDS011;11795;47.054;15.408;2023-08-06T08:50:00;1.1;;;0.9;;
23252;SDS011;11795;47.054;15.408;2023-08-06T08:52:00;1.1;;;0.9;;
23252;SDS011;11795;47.054;15.408;2023-08-06T08:54:01;1.3;;;1.2;;
23252;SDS011;11795;47.054;15.408;2023-08-06T08:56:01;1.3;;;1.2;;
23252;SDS011;11795;47.054;15.408;2023-08-06T08:58:00;2.4;;;1.4;;
23252;SDS011;11795;47.054;15.408;2023-08-06T09:00:00;2.4;;;1.4;;
23252;SDS011;11795;47.054;15.408;2023-08-06T09:02:00;2.4;;;1.4;;
23252;SDS011;11795;47.054;15.408;2023-08-06T09:04:00;3.1;;;2.8;;
23252;SDS011;11795;47.054;15.408;2023-08-06T09:06:00;3.1;;;2.8;;
23252;SDS011;11795;47.054;15.408;2023-08-06T09:08:02;1.8;;;1.6;;
23252;SDS011;11795;47.054;15.408;2023-08-06T09:10:01;1.8;;;1.6;;
23252;SDS011;11795;47.054;15.408;2023-08-06T09:12:01;1.8;;;1.6;;
23252;SDS011;11795;47.054;15.408;2023-08-06T09:14:02;1.7;;;1.0;;
23252;SDS011;11795;47.054;15.408;2023-08-06T09:16:00;1.7;;;1.0;;
23252;SDS011;11795;47.054;15.408;2023-08-06T09:18:00;2.5;;;1.9;;
23252;SDS011;11795;47.054;15.408;2023-08-06T09:20:08;2.5;;;1.9;;
23252;SDS011;11795;47.054;15.408;2023-08-06T09:22:00;2.5;;;1.9;;
23252;SDS011;11795;47.054;15.408;2023-08-06T09:24:00;3.4;;;2.7;;
23252;SDS011;11795;47.054;15.408;2023-08-06T09:26:02;3.4;;;2.7;;
23252;SDS011;11795;47.054;15.408;2023-08-06T09:28:00;2.0;;;1.4;;
23252;SDS011;11795;47.054;15.408;2023-08-06T09:30:00;2.0;;;1.4;;
23252;SDS011;11795;47.054;15.408;2023-08-06T09:32:00;2.0;;;1.4;;
23252;SDS011;11795;47.054;15.408;2023-08-06T09:34:00;1.1;;;0.8;;
23252;SDS011;11795;47.054;15.408;2023-08-06T09:36:06;1.1;;;0.8;;
23252;SDS011;11795;47.054;15.408;2023-08-06T09:38:05;0.7;;;0.7;;
23252;SDS011;11795;47.054;15.408;2023-08-06T09:40:00;0.7;;;0.7;;
23252;SDS011;11795;47.054;15.408;2023-08-06T09:42:01;0.7;;;0.7;;
23252;SDS011;11795;47.054;15.408;2023-08-06T09:44:00;1.0;;;0.8;;
23252;SDS011;11795;47.054;15.408;2023-08-06T09:46:00;1.0;;;0.8;;
23252;SDS011;11795;47.054;15.408;2023-08-06T09:48:01;1.0;;;0.7;;
23252;SDS011;11795;47.054;15.408;2023-08-06T09:50:00;1.0;;;0.7;;
23252;SDS011;11795;47.054;15.408;2023-08-06T09:52:00;1.0;;;0.7;;
23252;SDS011;11795;47.054;15.408;2023-08-06T09:54:00;1.0;;;0.7;;
23252;SDS011;11795;47.054;15.408;2023-08-06T09:56:00;1.0;;;0.7;;
23252;SDS011;11795;47.054;15.408;2023-08-06T09:58:00;1.1;;;0.9;;
23252;SDS011;11795;47.054;15.408;2023-08-06T10:00:00;1.1;;;0.9;;
23252;SDS011;11795;47.054;15.408;2023-08-06T10:02:00;1.1;;;0.9;;
23252;SDS011;11795;47.054;15.408;2023-08-06T10:04:00;1.5;;;0.9;;
23252;SDS011;11795;47.054;15.408;2023-08-06T10:06:02;1.5;;;0.9;;
23252;SDS011;11795;47.054;15.408;2023-08-06T10:08:00;1.5;;;1.0;;
23252;SDS011;11795;47.054;15.408;2023-08-06T10:10:01;1.5;;;1.0;;
23252;SDS011;11795;47.054;15.408;2023-08-06T10:12:01;1.5;;;1.0;;
23252;SDS011;11795;47.054;15.408;2023-08-06T10:14:02;1.7;;;1.2;;
23252;SDS011;11795;47.054;15.408;2023-08-06T10:16:01;1.7;;;1.2;;
23252;SDS011;11795;47.054;15.408;2023-08-06T10:18:00;1.7;;;1.1;;
23252;SDS011;11795;47.054;15.408;2023-08-06T10:20:00;1.7;;;1.1;;
23252;SDS011;11795;47.054;15.408;2023-08-06T10:22:08;1.7;;;1.1;;
23252;SDS011;11795;47.054;15.408;2023-08-06T10:24:02;0.8;;;0.7;;
23252;SDS011;11795;47.054;15.408;2023-08-06T10:26:00;0.8;;;0.7;;
23252;SDS011;11795;47.054;15.408;2023-08-06T10:28:00;1.1;;;0.7;;
23252;SDS011;11795;47.054;15.408;2023-08-06T10:32:00;1.1;;;0.7;;
23252;SDS011;11795;47.054;15.408;2023-08-06T10:34:00;2.0;;;1.6;;
23252;SDS011;11795;47.054;15.408;2023-08-06T10:36:00;2.0;;;1.6;;
23252;SDS011;11795;47.054;15.408;2023-08-06T10:38:04;3.4;;;2.2;;
23252;SDS011;11795;47.054;15.408;2023-08-06T10:40:00;3.4;;;2.2;;
23252;SDS011;11795;47.054;15.408;2023-08-06T10:42:01;3.4;;;2.2;;
23252;SDS011;11795;47.054;15.408;2023-08-06T10:44:08;1.3;;;1.2;;
23252;SDS011;11795;47.054;15.408;2023-08-06T10:46:01;1.3;;;1.2;;
23252;SDS011;11795;47.054;15.408;2023-08-06T10:48:00;1.0;;;0.8;;
23252;SDS011;11795;47.054;15.408;2023-08-06T10:50:00;1.0;;;0.8;;
23252;SDS011;11795;47.054;15.408;2023-08-06T10:52:00;1.0;;;0.8;;
23252;SDS011;11795;47.054;15.408;2023-08-06T10:54:00;1.1;;;0.8;;
23252;SDS011;11795;47.054;15.408;2023-08-06T10:56:00;1.1;;;0.8;;
23252;SDS011;11795;47.054;15.408;2023-08-06T10:58:00;1.1;;;0.6;;
23252;SDS011;11795;47.054;15.408;2023-08-06T11:00:00;1.1;;;0.6;;
23252;SDS011;11795;47.054;15.408;2023-08-06T11:02:00;1.1;;;0.6;;
23252;SDS011;11795;47.054;15.408;2023-08-06T11:04:01;0.7;;;0.6;;
23252;SDS011;11795;47.054;15.408;2023-08-06T11:06:00;0.7;;;0.6;;
23252;SDS011;11795;47.054;15.408;2023-08-06T11:08:00;0.8;;;0.6;;
23252;SDS011;11795;47.054;15.408;2023-08-06T11:10:01;0.8;;;0.6;;
23252;SDS011;11795;47.054;15.408;2023-08-06T11:12:00;0.8;;;0.6;;
23252;SDS011;11795;47.054;15.408;2023-08-06T11:14:00;0.6;;;0.6;;
23252;SDS011;11795;47.054;15.408;2023-08-06T11:16:00;0.6;;;0.6;;
23252;SDS011;11795;47.054;15.408;2023-08-06T11:18:02;1.0;;;0.6;;
23252;SDS011;11795;47.054;15.408;2023-08-06T11:20:00;1.0;;;0.6;;
23252;SDS011;11795;47.054;15.408;2023-08-06T11:22:02;1.0;;;0.6;;
23252;SDS011;11795;47.054;15.408;2023-08-06T11:24:00;0.6;;;0.6;;
23252;SDS011;11795;47.054;15.408;2023-08-06T11:26:00;0.6;;;0.6;;
23252;SDS011;11795;47.054;15.408;2023-08-06T11:28:01;1.0;;;0.7;;
23252;SDS011;11795;47.054;15.408;2023-08-06T11:30:00;1.0;;;0.7;;
23252;SDS011;11795;47.054;15.408;2023-08-06T11:32:03;1.0;;;0.7;;
23252;SDS011;11795;47.054;15.408;2023-08-06T11:34:00;1.1;;;0.6;;
23252;SDS011;11795;47.054;15.408;2023-08-06T11:36:00;1.1;;;0.6;;
23252;SDS011;11795;47.054;15.408;2023-08-06T11:38:00;1.1;;;0.6;;
23252;SDS011;11795;47.054;15.408;2023-08-06T11:40:00;0.5;;;0.5;;
23252;SDS011;11795;47.054;15.408;2023-08-06T11:42:02;0.5;;;0.5;;
23252;SDS011;11795;47.054;15.408;2023-08-06T11:44:00;0.8;;;0.6;;
23252;SDS011;11795;47.054;15.408;2023-08-06T11:46:00;0.8;;;0.6;;
23252;SDS011;11795;47.054;15.408;2023-08-06T11:48:00;0.8;;;0.6;;
23252;SDS011;11795;47.054;15.408;2023-08-06T11:50:00;1.0;;;0.4;;
23252;SDS011;11795;47.054;15.408;2023-08-06T11:52:06;1.0;;;0.4;;
23252;SDS011;11795;47.054;15.408;2023-08-06T11:54:00;0.5;;;0.4;;
23252;SDS011;11795;47.054;15.408;2023-08-06T11:56:01;0.5;;;0.4;;
23252;SDS011;11795;47.054;15.408;2023-08-06T11:58:02;0.5;;;0.4;;
23252;SDS011;11795;47.054;15.408;2023-08-06T12:00:01;0.9;;;0.5;;
23252;SDS011;11795;47.054;15.408;2023-08-06T12:02:01;0.9;;;0.5;;
23252;SDS011;11795;47.054;15.408;2023-08-06T12:04:00;0.6;;;0.4;;
23252;SDS011;11795;47.054;15.408;2023-08-06T12:06:00;0.6;;;0.4;;
23252;SDS011;11795;47.054;15.408;2023-08-06T12:08:01;0.6;;;0.4;;
23252;SDS011;11795;47.054;15.408;2023-08-06T12:10:00;0.9;;;0.5;;
23252;SDS011;11795;47.054;15.408;2023-08-06T12:12:00;0.9;;;0.5;;
23252;SDS011;11795;47.054;15.408;2023-08-06T12:14:00;0.6;;;0.4;;